Time;durP1;ratioP1;P1;durP2;ratioP2;P2;SDS_P1;SDS_P2;PMS_P1;PMS_P2;Temp;Humidity;BMP_temperature;BMP_pressure;BME280_temperature;BME280_humidity;BME280_pressure;Samples;Min_cycle;Max_cycle;Signal;HPM_P1;HPM_P2
2022/11/03 08:12:15;;;;;;;;;;;;;;;14.68;72.67;96955.66;4231923;27;10237;-66
2022/11/03 08:14:18;;;;;;;;;;;;;;;14.98;72.06;96945.22;4230345;28;5605;-66
2022/11/03 08:16:21;;;;;;;;;;;;;;;15.22;71.62;96951.56;4225461;28;5774;-66
2022/11/03 08:18:26;;;;;;;;;;;;;;;15.43;71.29;96953.03;4229439;28;5613;-65
2022/11/03 08:20:30;;;;;;;;;;;;;;;15.57;70.65;96948.38;4214894;28;5628;-66
2022/11/03 08:22:32;;;;;;;;;;;;;;;15.65;70.36;96958.78;4227047;28;5609;-66
2022/11/03 08:24:38;;;;;;;;;;;;;;;15.72;70.23;96954.19;4232043;28;5624;-66
2022/11/03 08:26:41;;;;;;;;;;;;;;;15.81;70.25;96952.03;4218761;28;5739;-66
2022/11/03 08:28:46;;;;;;;;;;;;;;;15.89;70.04;96959.75;4214922;28;5619;-66
2022/11/03 08:30:51;;;;;;;;;;;;;;;15.98;69.69;96950.41;4220806;28;5620;-66
2022/11/03 08:32:54;;;;;;;;;;;;;;;16.02;69.50;96951.59;4231506;28;5620;-66
2022/11/03 08:35:00;;;;;;;;;;;;;;;16.09;69.29;96946.19;4223066;28;5598;-66
2022/11/03 08:37:03;;;;;;;;;;;;;;;16.13;69.05;96937.50;4231214;28;5632;-66
2022/11/03 08:39:07;;;;;;;;;;;;;;;16.18;69.03;96934.97;4214820;28;5871;-66
2022/11/03 08:41:10;;;;;;;;;;;;;;;16.23;68.98;96932.44;4223104;28;5613;-66
2022/11/03 08:43:14;;;;;;;;;;;;;;;16.27;68.75;96912.28;4230743;28;5616;-66
2022/11/03 08:45:18;;;;;;;;;;;;;;;16.30;68.46;96900.34;4215595;28;5747;-66
2022/11/03 08:47:21;;;;;;;;;;;;;;;16.28;68.50;96902.41;4222436;28;5640;-66
2022/11/03 08:49:24;;;;;;;;;;;;;;;16.34;68.38;96908.72;4229206;28;5617;-66
2022/11/03 08:51:26;;;;;;;;;;;;;;;16.37;68.22;96913.59;4214705;28;5721;-66
2022/11/03 08:53:30;;;;;;;;;;;;;;;16.42;68.22;96916.38;4213708;28;5734;-66
2022/11/03 08:55:33;;;;;;;;;;;;;;;16.45;68.06;96923.97;4214532;28;6479;-66
2022/11/03 08:57:36;;;;;;;;;;;;;;;16.46;67.93;96915.72;4196272;28;6504;-66
2022/11/03 08:59:38;;;;;;;;;;;;;;;16.50;67.80;96924.88;4226957;28;5622;-66
2022/11/03 09:01:44;;;;;;;;;;;;;;;16.50;67.66;96918.75;4225629;28;5795;-66
2022/11/03 09:03:47;;;;;;;;;;;;;;;16.52;67.69;96920.13;4219902;28;5675;-66
2022/11/03 09:05:53;;;;;;;;;;;;;;;16.57;67.50;96911.47;4231131;28;5617;-66
2022/11/03 09:07:56;;;;;;;;;;;;;;;16.58;67.36;96913.09;4230916;28;5624;-66
2022/11/03 09:10:19;;;;;;;;;;;;;;;16.59;67.39;96907.50;4230058;28;5692;-66
2022/11/03 09:12:26;;;;;;;;;;;;;;;16.60;67.15;96895.78;4224219;28;5696;-66
2022/11/03 09:14:29;;;;;;;;;;;;;;;16.61;67.11;96885.94;4219741;28;5693;-66
2022/11/03 09:16:32;;;;;;;;;;;;;;;16.62;67.04;96882.22;4219587;28;5613;-66
2022/11/03 09:18:36;;;;;;;;;;;;;;;16.64;66.74;96869.44;4207577;28;5624;-66
2022/11/03 09:20:39;;;;;;;;;;;;;;;16.65;66.79;96872.94;4203043;28;5628;-66
2022/11/03 09:22:41;;;;;;;;;;;;;;;16.67;66.74;96866.34;4202872;28;5623;-66
2022/11/03 09:24:44;;;;;;;;;;;;;;;16.69;66.49;96871.47;4202457;28;5631;-66
2022/11/03 09:26:47;;;;;;;;;;;;;;;16.69;66.55;96866.16;4202908;28;5774;-66
2022/11/03 09:28:51;;;;;;;;;;;;;;;16.68;66.46;96865.34;4202725;28;5631;-66
2022/11/03 09:30:53;;;;;;;;;;;;;;;16.70;66.42;96860.56;4202558;28;5628;-66
2022/11/03 09:32:56;;;;;;;;;;;;;;;16.70;66.35;96859.75;4202731;28;5647;-66
2022/11/03 09:35:00;;;;;;;;;;;;;;;16.71;66.32;96856.03;4218090;28;5624;-66
2022/11/03 09:37:03;;;;;;;;;;;;;;;16.73;66.17;96852.09;4219499;28;5618;-66
2022/11/03 09:39:09;;;;;;;;;;;;;;;16.77;66.05;96837.25;4219553;28;5625;-66
2022/11/03 09:41:16;;;;;;;;;;;;;;;16.81;66.03;96834.94;4219551;28;5644;-66
2022/11/03 09:43:40;;;;;;;;;;;;;;;16.81;65.85;96835.75;4219457;28;5759;-66
2022/11/03 09:45:42;;;;;;;;;;;;;;;16.83;65.72;96830.97;4219320;28;5625;-66
2022/11/03 09:47:46;;;;;;;;;;;;;;;16.84;65.59;96813.91;4218576;28;5620;-66
2022/11/03 09:49:48;;;;;;;;;;;;;;;16.86;65.61;96822.50;4213536;28;5636;-66
2022/11/03 09:51:57;;;;;;;;;;;;;;;16.90;65.68;96811.38;4202498;28;5747;-66
2022/11/03 09:54:04;;;;;;;;;;;;;;;16.90;65.38;96819.38;4184580;28;5643;-66
2022/11/03 09:56:09;;;;;;;;;;;;;;;16.90;65.30;96816.72;4202265;28;5789;-66
2022/11/03 09:58:15;;;;;;;;;;;;;;;16.90;65.09;96817.53;4202553;28;5627;-66
2022/11/03 10:00:19;;;;;;;;;;;;;;;16.87;65.14;96802.78;4202148;28;5643;-66
2022/11/03 10:02:27;;;;;;;;;;;;;;;16.86;65.11;96814.50;4201188;28;5620;-66
2022/11/03 10:04:31;;;;;;;;;;;;;;;16.90;65.18;96804.19;4201522;28;5723;-66
2022/11/03 10:06:33;;;;;;;;;;;;;;;16.92;64.95;96790.59;4214087;28;6433;-66
2022/11/03 10:08:41;;;;;;;;;;;;;;;16.91;64.91;96794.31;4219135;28;5617;-66
2022/11/03 10:10:44;;;;;;;;;;;;;;;16.94;64.93;96796.50;4218640;28;5609;-66
2022/11/03 10:12:49;;;;;;;;;;;;;;;16.96;64.79;96781.06;4219077;28;5797;-66
2022/11/03 10:14:53;;;;;;;;;;;;;;;16.97;64.69;96782.69;4218805;28;7738;-66
2022/11/03 10:16:59;;;;;;;;;;;;;;;16.97;64.73;96778.16;4218815;28;5792;-66
2022/11/03 10:19:02;;;;;;;;;;;;;;;16.99;64.69;96768.06;4218839;28;7648;-67
2022/11/03 10:21:12;;;;;;;;;;;;;;;17.00;64.50;96759.00;4218537;28;7647;-66
2022/11/03 10:23:14;;;;;;;;;;;;;;;16.99;64.48;96743.19;4201570;28;5726;-66
2022/11/03 10:25:39;;;;;;;;;;;;;;;16.97;64.46;96745.28;4201371;28;5735;-66
2022/11/03 10:27:42;;;;;;;;;;;;;;;16.98;64.49;96733.56;4202039;28;5777;-66
2022/11/03 10:29:45;;;;;;;;;;;;;;;17.00;64.29;96723.47;4202207;28;5687;-65
2022/11/03 10:31:59;;;;;;;;;;;;;;;17.01;64.25;96711.75;4201775;28;5718;-66
2022/11/03 10:34:02;;;;;;;;;;;;;;;17.02;64.31;96724.88;4201814;28;5640;-66
2022/11/03 10:36:22;;;;;;;;;;;;;;;17.03;64.42;96709.66;4201829;28;5635;-66
2022/11/03 10:38:29;;;;;;;;;;;;;;;17.04;64.10;96703.25;4212518;28;6323;-66
2022/11/03 10:40:37;;;;;;;;;;;;;;;17.04;64.18;96696.06;4218777;28;5621;-66
2022/11/03 10:42:59;;;;;;;;;;;;;;;17.06;64.05;96688.63;4218628;28;5613;-66
2022/11/03 10:45:12;;;;;;;;;;;;;;;17.06;64.02;96679.78;4218732;28;5621;-66
2022/11/03 10:47:35;;;;;;;;;;;;;;;17.07;63.88;96674.22;4201665;28;5644;-66
2022/11/03 10:49:38;;;;;;;;;;;;;;;17.08;63.92;96661.66;4202008;28;6441;-66
2022/11/03 10:51:48;;;;;;;;;;;;;;;17.08;63.71;96661.66;4201685;28;5616;-66
2022/11/03 10:53:52;;;;;;;;;;;;;;;17.08;63.85;96659.81;4207520;28;5708;-66
2022/11/03 10:55:56;;;;;;;;;;;;;;;17.09;63.72;96658.75;4217864;28;5616;-66
2022/11/03 10:57:59;;;;;;;;;;;;;;;17.11;63.70;96667.38;4217198;28;5681;-66
2022/11/03 11:00:02;;;;;;;;;;;;;;;17.12;63.73;96662.84;4218134;28;5616;-66
2022/11/03 11:02:15;;;;;;;;;;;;;;;17.13;63.65;96672.47;4217856;28;5683;-66
2022/11/03 11:04:20;;;;;;;;;;;;;;;17.13;63.52;96673.28;4218249;28;5613;-66
2022/11/03 11:06:25;;;;;;;;;;;;;;;17.14;63.63;96682.91;4218060;28;5648;-66
2022/11/03 11:08:28;;;;;;;;;;;;;;;17.13;63.55;96675.13;4218163;28;5837;-66
2022/11/03 11:10:31;;;;;;;;;;;;;;;17.14;63.75;96676.75;4205895;28;6814;-66
2022/11/03 11:12:35;;;;;;;;;;;;;;;17.13;63.49;96670.59;4201239;28;5635;-66
2022/11/03 11:14:52;;;;;;;;;;;;;;;17.15;63.60;96654.34;4183333;28;6332;-66
2022/11/03 11:16:56;;;;;;;;;;;;;;;17.14;63.38;96647.38;4200896;28;5628;-66
2022/11/03 11:19:03;;;;;;;;;;;;;;;17.16;63.58;96642.59;4201120;28;5146;-66
2022/11/03 11:22:05;;;;;;;;;;;;;;;17.16;63.55;96637.25;4201057;28;6321;-66
2022/11/03 11:24:09;;;;;;;;;;;;;;;17.15;63.52;96622.28;4133438;28;5632;-66
2022/11/03 11:26:40;;;;;;;;;;;;;;;17.14;63.42;96612.66;4133406;28;5636;-66
2022/11/03 11:28:46;;;;;;;;;;;;;;;17.10;63.44;96593.63;4133596;28;5612;-66
2022/11/03 11:30:58;;;;;;;;;;;;;;;17.11;63.48;96583.75;4133428;28;5617;-66
2022/11/03 11:33:14;;;;;;;;;;;;;;;17.12;63.38;96585.38;4133255;28;5703;-66
2022/11/03 11:35:39;;;;;;;;;;;;;;;17.14;63.40;96591.28;4133219;28;5633;-66
2022/11/03 11:37:43;;;;;;;;;;;;;;;17.12;63.27;96588.84;4133232;28;5695;-66
2022/11/03 11:39:47;;;;;;;;;;;;;;;17.12;63.16;96574.69;4133237;28;5703;-66
2022/11/03 11:42:12;;;;;;;;;;;;;;;17.09;63.10;96561.78;4133243;28;5644;-66
2022/11/03 11:44:48;;;;;;;;;;;;;;;17.08;63.31;96552.16;4133207;28;5752;-66
2022/11/03 11:46:51;;;;;;;;;;;;;;;17.08;63.24;96541.47;4133073;28;5624;-66
2022/11/03 11:49:15;;;;;;;;;;;;;;;17.08;63.16;96542.28;4133210;28;5613;-66
2022/11/03 11:51:18;;;;;;;;;;;;;;;17.10;63.35;96536.72;4133298;28;5946;-66
2022/11/03 11:53:23;;;;;;;;;;;;;;;17.11;63.14;96525.00;4133091;28;5687;-66
2022/11/03 11:55:40;;;;;;;;;;;;;;;17.10;63.00;96521.53;4144401;28;6625;-66
2022/11/03 11:57:45;;;;;;;;;;;;;;;17.10;63.09;96504.66;4149091;28;5732;-66
2022/11/03 11:59:49;;;;;;;;;;;;;;;17.12;62.96;96513.25;4208427;28;5679;-66
2022/11/03 12:01:55;;;;;;;;;;;;;;;17.10;62.92;96504.66;4214666;28;5610;-66
2022/11/03 12:04:03;;;;;;;;;;;;;;;17.12;62.82;96492.72;4217461;28;5712;-66
2022/11/03 12:06:08;;;;;;;;;;;;;;;17.15;62.67;96494.06;4217354;28;5622;-66
2022/11/03 12:08:18;;;;;;;;;;;;;;;17.14;62.66;96490.59;4217389;28;5605;-66
2022/11/03 12:10:26;;;;;;;;;;;;;;;17.14;62.50;96479.91;4217055;28;5601;-66
2022/11/03 12:12:35;;;;;;;;;;;;;;;17.14;62.48;96479.09;4217314;28;5803;-66
2022/11/03 12:14:39;;;;;;;;;;;;;;;17.14;62.38;96479.09;4204676;28;5703;-66
2022/11/03 12:16:42;;;;;;;;;;;;;;;17.14;62.37;96465.75;4200332;28;5699;-66
2022/11/03 12:18:45;;;;;;;;;;;;;;;17.14;62.23;96457.75;4200638;28;5786;-66
2022/11/03 12:20:52;;;;;;;;;;;;;;;17.14;62.10;96455.06;4200681;28;5738;-66
2022/11/03 12:22:55;;;;;;;;;;;;;;;17.14;62.00;96452.41;4200448;28;5800;-66
2022/11/03 12:24:59;;;;;;;;;;;;;;;17.15;62.12;96448.66;4200593;28;5841;-66
2022/11/03 12:27:17;;;;;;;;;;;;;;;17.15;61.92;96443.31;4200773;28;5773;-66
2022/11/03 12:29:19;;;;;;;;;;;;;;;17.15;61.52;96443.31;4201937;28;5711;-66
2022/11/03 12:31:22;;;;;;;;;;;;;;;17.16;61.67;96437.75;4217089;28;5633;-66
2022/11/03 12:33:28;;;;;;;;;;;;;;;17.15;61.69;96428.09;4217044;28;5732;-66
2022/11/03 12:35:31;;;;;;;;;;;;;;;17.16;61.44;96428.91;4217208;28;5626;-66
2022/11/03 12:37:34;;;;;;;;;;;;;;;17.17;61.53;96427.88;4217209;28;5745;-66
2022/11/03 12:39:37;;;;;;;;;;;;;;;17.17;61.58;96422.53;4217240;28;5602;-66
2022/11/03 12:41:41;;;;;;;;;;;;;;;17.17;61.44;96430.53;4217196;28;5613;-66
2022/11/03 12:43:45;;;;;;;;;;;;;;;17.17;61.41;96422.53;4217248;28;5610;-66
2022/11/03 12:45:48;;;;;;;;;;;;;;;17.15;61.43;96413.94;4217236;28;5673;-66
2022/11/03 12:47:51;;;;;;;;;;;;;;;17.15;61.36;96408.59;4218584;28;5621;-66
2022/11/03 12:49:53;;;;;;;;;;;;;;;17.15;61.33;96421.97;4220134;28;5734;-65
2022/11/03 12:52:00;;;;;;;;;;;;;;;17.12;61.20;96423.25;4220187;28;5610;-65
2022/11/03 12:54:09;;;;;;;;;;;;;;;17.10;61.21;96417.38;4211841;28;5699;-65
2022/11/03 12:56:15;;;;;;;;;;;;;;;17.09;61.20;96402.34;4203596;28;5113;-66
2022/11/03 12:58:18;;;;;;;;;;;;;;;17.10;61.07;96387.97;4203388;28;5779;-66
2022/11/03 13:00:22;;;;;;;;;;;;;;;17.09;61.01;96396.22;4203088;28;5695;-66
2022/11/03 13:02:25;;;;;;;;;;;;;;;17.08;60.88;96392.72;4202930;28;5778;-66
2022/11/03 13:04:28;;;;;;;;;;;;;;;17.07;60.85;96356.41;4203233;28;5707;-66
2022/11/03 13:06:31;;;;;;;;;;;;;;;17.05;60.63;96363.03;4203251;28;5687;-66
2022/11/03 13:08:34;;;;;;;;;;;;;;;16.98;60.76;96357.84;4201974;28;5627;-65
2022/11/03 13:10:37;;;;;;;;;;;;;;;16.98;60.78;96346.38;4201851;28;5781;-65
2022/11/03 13:12:40;;;;;;;;;;;;;;;17.00;60.71;96384.34;4203118;28;5718;-65
2022/11/03 13:14:43;;;;;;;;;;;;;;;16.99;60.71;96396.88;4203152;28;5687;-65
2022/11/03 13:16:51;;;;;;;;;;;;;;;17.00;60.70;96387.81;4202858;28;5766;-65
2022/11/03 13:18:54;;;;;;;;;;;;;;;17.00;60.72;96392.34;4203336;28;5687;-64
2022/11/03 13:20:57;;;;;;;;;;;;;;;17.02;60.78;96406.25;4203004;28;5908;-65
2022/11/03 13:23:00;;;;;;;;;;;;;;;17.01;60.63;96416.13;4202704;28;6988;-65
2022/11/03 13:25:03;;;;;;;;;;;;;;;17.02;60.67;96412.41;4202944;28;5803;-65
2022/11/03 13:27:06;;;;;;;;;;;;;;;17.02;60.60;96420.44;4202960;28;5774;-65
2022/11/03 13:29:09;;;;;;;;;;;;;;;17.00;60.46;96427.88;4202829;28;5986;-65
2022/11/03 13:31:14;;;;;;;;;;;;;;;17.02;60.45;96427.63;4202747;28;7718;-65
2022/11/03 13:33:19;;;;;;;;;;;;;;;17.03;60.53;96434.59;4203688;28;5794;-65
2022/11/03 13:35:24;;;;;;;;;;;;;;;17.02;60.49;96435.63;4219575;28;5673;-65
2022/11/03 13:37:27;;;;;;;;;;;;;;;17.03;60.52;96426.56;4219768;28;5646;-65
2022/11/03 13:39:30;;;;;;;;;;;;;;;17.02;60.39;96403.59;4219390;28;5708;-65
2022/11/03 13:41:33;;;;;;;;;;;;;;;16.98;60.39;96405.91;4219462;28;5613;-65
2022/11/03 13:43:35;;;;;;;;;;;;;;;16.96;60.44;96417.91;4219318;28;5606;-65
2022/11/03 13:45:38;;;;;;;;;;;;;;;16.93;60.46;96413.06;4219194;28;5613;-65
2022/11/03 13:47:41;;;;;;;;;;;;;;;16.93;60.38;96413.88;4219222;28;5613;-65
2022/11/03 13:50:06;;;;;;;;;;;;;;;16.94;60.56;96409.34;4211200;28;5782;-65
2022/11/03 13:52:16;;;;;;;;;;;;;;;16.94;60.62;96398.66;4202484;28;5812;-65
2022/11/03 13:54:19;;;;;;;;;;;;;;;16.90;60.35;96385.00;4202422;28;5711;-65
2022/11/03 13:56:42;;;;;;;;;;;;;;;16.90;60.44;96381.50;4202051;28;5811;-65
2022/11/03 13:59:07;;;;;;;;;;;;;;;16.89;60.45;96394.06;4202071;28;5694;-65
2022/11/03 14:01:25;;;;;;;;;;;;;;;16.92;60.45;96395.41;4202087;28;6396;-65
2022/11/03 14:03:29;;;;;;;;;;;;;;;16.92;60.49;96390.09;4202180;28;5687;-65
2022/11/03 14:05:53;;;;;;;;;;;;;;;16.93;60.47;96391.69;4202103;28;5690;-65
2022/11/03 14:07:56;;;;;;;;;;;;;;;16.92;60.50;96385.53;4202385;28;5695;-65
2022/11/03 14:10:00;;;;;;;;;;;;;;;16.91;60.56;96378.59;4202117;28;5706;-65
2022/11/03 14:14:26;;;;;;;;;;;;;;;16.86;60.50;96365.94;4202048;28;5695;-65
2022/11/03 14:16:29;;;;;;;;;;;;;;;16.87;60.60;96361.41;4201906;28;5777;-65
2022/11/03 14:18:32;;;;;;;;;;;;;;;16.85;60.61;96359.00;4201736;28;5711;-66
2022/11/03 14:20:35;;;;;;;;;;;;;;;16.82;60.68;96348.81;4202203;28;5778;-66
2022/11/03 14:22:39;;;;;;;;;;;;;;;16.81;60.67;96333.84;4214752;28;5617;-65
2022/11/03 14:24:43;;;;;;;;;;;;;;;16.71;60.66;96328.34;4218811;28;5618;-65
2022/11/03 14:26:46;;;;;;;;;;;;;;;16.63;61.00;96342.06;4218701;28;5717;-65
2022/11/03 14:28:49;;;;;;;;;;;;;;;16.65;61.09;96342.66;4218886;28;5700;-65
2022/11/03 14:30:54;;;;;;;;;;;;;;;16.67;61.13;96340.53;4218445;28;5613;-65
2022/11/03 14:32:57;;;;;;;;;;;;;;;16.69;61.09;96335.81;4218225;28;6300;-65
2022/11/03 14:35:01;;;;;;;;;;;;;;;16.70;61.05;96336.59;4218763;28;5803;-65
2022/11/03 14:37:04;;;;;;;;;;;;;;;16.67;61.01;96340.53;4218596;28;5688;-66
2022/11/03 14:39:09;;;;;;;;;;;;;;;16.67;61.19;96339.75;4201979;28;5714;-66
2022/11/03 14:43:32;;;;;;;;;;;;;;;16.62;61.02;96320.97;4201821;28;5698;-65
2022/11/03 14:45:36;;;;;;;;;;;;;;;16.55;61.26;96311.28;4201638;28;5684;-65
2022/11/03 14:47:44;;;;;;;;;;;;;;;16.55;61.38;96303.25;4201303;28;7718;-65
2022/11/03 14:49:47;;;;;;;;;;;;;;;16.51;61.31;96298.63;4201325;28;5695;-65
2022/11/03 14:51:50;;;;;;;;;;;;;;;16.46;61.47;96295.91;4201671;28;5679;-66
2022/11/03 14:53:53;;;;;;;;;;;;;;;16.48;61.40;96296.47;4207779;28;5606;-65
2022/11/03 14:55:57;;;;;;;;;;;;;;;16.52;61.46;96302.91;4218283;28;5625;-66
2022/11/03 14:58:00;;;;;;;;;;;;;;;16.56;61.50;96309.41;4218130;28;5766;-65
2022/11/03 15:00:03;;;;;;;;;;;;;;;16.57;61.36;96303.81;4218078;28;5609;-65
2022/11/03 15:02:06;;;;;;;;;;;;;;;16.59;61.39;96268.88;4217976;28;5613;-65
2022/11/03 15:04:10;;;;;;;;;;;;;;;16.57;61.37;96260.31;4218125;28;5614;-65
2022/11/03 15:06:14;;;;;;;;;;;;;;;16.58;61.44;96267.28;4217486;28;5763;-66
2022/11/03 15:08:18;;;;;;;;;;;;;;;16.58;61.60;96268.09;4218192;28;5633;-65
2022/11/03 15:10:21;;;;;;;;;;;;;;;16.61;61.52;96248.09;4217191;28;5625;-65
2022/11/03 15:12:25;;;;;;;;;;;;;;;16.62;61.67;96246.25;4218156;28;5606;-65
2022/11/03 15:14:28;;;;;;;;;;;;;;;16.61;61.42;96248.09;4218162;28;5704;-65
2022/11/03 15:16:33;;;;;;;;;;;;;;;16.60;61.65;96230.47;4217948;28;5613;-65
2022/11/03 15:18:36;;;;;;;;;;;;;;;16.60;61.56;96236.63;4210724;28;5605;-65
2022/11/03 15:20:38;;;;;;;;;;;;;;;16.63;61.68;96216.63;4214794;28;5783;-65
2022/11/03 15:22:41;;;;;;;;;;;;;;;16.63;61.48;96216.63;4214569;28;5807;-66
2022/11/03 15:25:05;;;;;;;;;;;;;;;16.63;61.62;96227.31;4212717;28;5635;-65
2022/11/03 15:27:16;;;;;;;;;;;;;;;16.63;61.64;96240.66;4211503;28;6384;-65
2022/11/03 15:29:22;;;;;;;;;;;;;;;16.64;61.68;96231.59;4217350;28;5612;-65
2022/11/03 15:31:25;;;;;;;;;;;;;;;16.64;61.68;96228.91;4216319;28;5606;-65
2022/11/03 15:33:28;;;;;;;;;;;;;;;16.62;61.81;96220.34;4217542;28;5708;-65
2022/11/03 15:35:31;;;;;;;;;;;;;;;16.62;61.93;96203.53;4214289;28;5102;-66
2022/11/03 15:37:34;;;;;;;;;;;;;;;16.60;61.93;96185.09;4214984;28;6412;-65
2022/11/03 15:39:37;;;;;;;;;;;;;;;16.60;61.85;96207.25;4214199;28;5700;-65
2022/11/03 15:41:40;;;;;;;;;;;;;;;16.62;61.88;96208.88;4212788;28;5720;-65
2022/11/03 15:43:44;;;;;;;;;;;;;;;16.60;61.88;96203.78;4211196;28;5664;-65
2022/11/03 15:45:48;;;;;;;;;;;;;;;16.59;61.95;96199.50;4214739;28;5926;-65
2022/11/03 15:47:51;;;;;;;;;;;;;;;16.58;62.07;96187.22;4213870;28;7715;-65
2022/11/03 15:50:00;;;;;;;;;;;;;;;16.58;61.98;96172.03;4213980;28;5581;-65
2022/11/03 15:52:03;;;;;;;;;;;;;;;16.58;62.22;96188.03;4212892;28;7768;-65
2022/11/03 15:54:06;;;;;;;;;;;;;;;16.58;62.10;96201.38;4216187;28;5965;-65
2022/11/03 15:56:09;;;;;;;;;;;;;;;16.58;62.19;96213.91;4213378;28;5741;-65
2022/11/03 15:58:12;;;;;;;;;;;;;;;16.60;61.98;96214.47;4211367;28;5700;-65
2022/11/03 16:00:15;;;;;;;;;;;;;;;16.58;62.18;96220.03;4200610;28;5698;-65
2022/11/03 16:02:19;;;;;;;;;;;;;;;16.59;62.30;96212.84;4210467;28;5629;-65
2022/11/03 16:04:42;;;;;;;;;;;;;;;16.58;62.31;96219.25;4213774;28;5826;-66
2022/11/03 16:06:45;;;;;;;;;;;;;;;16.57;62.34;96213.09;4211997;28;5722;-65
2022/11/03 16:09:08;;;;;;;;;;;;;;;16.57;62.31;96228.31;4216629;28;5882;-65
2022/11/03 16:11:10;;;;;;;;;;;;;;;16.54;62.54;96216.25;4208175;28;5636;-65
2022/11/03 16:13:13;;;;;;;;;;;;;;;16.56;62.38;96206.16;4208096;28;5086;-65
2022/11/03 16:15:16;;;;;;;;;;;;;;;16.55;62.27;96203.72;4208639;28;7757;-65
2022/11/03 16:17:21;;;;;;;;;;;;;;;16.52;62.50;96205.00;4205566;28;5590;-65
2022/11/03 16:19:24;;;;;;;;;;;;;;;16.51;62.44;96203.38;4211651;28;5628;-65
2022/11/03 16:21:27;;;;;;;;;;;;;;;16.50;62.52;96185.78;4214778;28;5628;-66
2022/11/03 16:23:30;;;;;;;;;;;;;;;16.47;62.39;96185.47;4212438;28;5627;-65
2022/11/03 16:25:34;;;;;;;;;;;;;;;16.44;62.58;96189.44;4210490;28;5656;-65
2022/11/03 16:27:37;;;;;;;;;;;;;;;16.43;62.71;96185.16;4208865;28;7773;-65
2022/11/03 16:29:40;;;;;;;;;;;;;;;16.42;62.59;96182.69;4210037;28;5779;-65
2022/11/03 16:31:43;;;;;;;;;;;;;;;16.38;62.78;96184.25;4211418;28;5830;-65
2022/11/03 16:33:47;;;;;;;;;;;;;;;16.36;62.78;96175.69;4214658;28;5810;-65
2022/11/03 16:35:50;;;;;;;;;;;;;;;16.30;62.77;96170.25;4213058;28;5714;-64
2022/11/03 16:37:52;;;;;;;;;;;;;;;16.25;62.83;96161.41;4212243;28;5628;-65
2022/11/03 16:39:55;;;;;;;;;;;;;;;16.28;63.14;96164.38;4210762;28;5719;-65
2022/11/03 16:41:58;;;;;;;;;;;;;;;16.33;63.01;96146.84;4205674;28;5748;-65
2022/11/03 16:44:01;;;;;;;;;;;;;;;16.35;62.92;96134.06;4216875;28;5648;-66
2022/11/03 16:46:03;;;;;;;;;;;;;;;16.36;63.00;96136.50;4204029;28;5659;-65
2022/11/03 16:48:06;;;;;;;;;;;;;;;16.37;63.27;96124.75;4215142;28;5672;-66
2022/11/03 16:50:11;;;;;;;;;;;;;;;16.38;63.05;96144.25;4220053;28;5612;-66
2022/11/03 16:52:14;;;;;;;;;;;;;;;16.38;63.03;96144.25;4217747;28;5624;-66
2022/11/03 16:54:17;;;;;;;;;;;;;;;16.38;63.14;96155.72;4215258;28;5625;-66
2022/11/03 16:56:20;;;;;;;;;;;;;;;16.39;63.02;96157.31;4218454;28;5621;-66
2022/11/03 16:58:23;;;;;;;;;;;;;;;16.41;63.11;96165.09;4213326;28;5699;-66
2022/11/03 17:00:26;;;;;;;;;;;;;;;16.44;63.18;96159.28;4212474;28;5707;-66
2022/11/03 17:02:28;;;;;;;;;;;;;;;16.46;63.28;96149.16;4214303;28;5876;-66
2022/11/03 17:04:31;;;;;;;;;;;;;;;16.46;63.03;96141.16;4208667;28;5766;-65
2022/11/03 17:06:36;;;;;;;;;;;;;;;16.47;63.23;96150.78;4214684;28;5996;-66
2022/11/03 17:08:39;;;;;;;;;;;;;;;16.49;63.29;96157.47;4213976;28;5695;-66
2022/11/03 17:10:54;;;;;;;;;;;;;;;16.50;63.06;96144.94;4214653;28;5616;-66
2022/11/03 17:12:57;;;;;;;;;;;;;;;16.51;63.24;96157.22;4211347;28;5687;-66
2022/11/03 17:15:00;;;;;;;;;;;;;;;16.51;63.24;96171.38;4216849;28;5618;-66
2022/11/03 17:17:03;;;;;;;;;;;;;;;16.53;63.37;96165.78;4207627;28;5731;-66
2022/11/03 17:19:06;;;;;;;;;;;;;;;16.53;63.29;96160.44;4210371;28;5688;-67
2022/11/03 17:21:09;;;;;;;;;;;;;;;16.53;63.31;96144.44;4210454;28;5720;-66
2022/11/03 17:23:13;;;;;;;;;;;;;;;16.54;63.32;96144.22;4210874;28;5616;-66
2022/11/03 17:25:16;;;;;;;;;;;;;;;16.55;63.44;96145.03;4208358;28;5620;-66
2022/11/03 17:27:22;;;;;;;;;;;;;;;16.55;63.43;96158.38;4211549;28;5712;-74
2022/11/03 17:29:32;;;;;;;;;;;;;;;16.55;63.60;96145.03;4207573;28;5946;-74
2022/11/03 17:31:35;;;;;;;;;;;;;;;16.55;63.58;96147.69;4214186;28;5719;-74
2022/11/03 17:33:38;;;;;;;;;;;;;;;16.56;63.56;96130.63;4214954;28;5825;-73
2022/11/03 17:35:43;;;;;;;;;;;;;;;16.56;63.57;96130.63;4210074;28;5706;-74
2022/11/03 17:37:46;;;;;;;;;;;;;;;16.55;63.52;96134.34;4216747;28;5772;-73
2022/11/03 17:39:51;;;;;;;;;;;;;;;16.56;63.62;96174.13;4205294;28;5644;-74
2022/11/03 17:41:54;;;;;;;;;;;;;;;16.56;63.56;96147.44;4197505;28;5635;-74
2022/11/03 17:43:57;;;;;;;;;;;;;;;16.55;63.61;96118.34;4214740;28;5787;-74
2022/11/03 17:45:59;;;;;;;;;;;;;;;16.55;63.79;96142.34;4218756;28;5621;-74
2022/11/03 17:48:02;;;;;;;;;;;;;;;16.55;63.69;96145.03;4215114;28;5617;-73
2022/11/03 17:50:06;;;;;;;;;;;;;;;16.56;63.86;96136.78;4207029;28;5632;-73
2022/11/03 17:52:13;;;;;;;;;;;;;;;16.55;64.03;96118.34;4210872;28;5694;-74
2022/11/03 17:54:17;;;;;;;;;;;;;;;16.54;63.88;96095.38;4215542;28;5684;-73
2022/11/03 17:56:26;;;;;;;;;;;;;;;16.51;63.94;96112.69;4213942;28;5747;-74
2022/11/03 17:58:34;;;;;;;;;;;;;;;16.53;64.11;96117.75;4210216;28;5643;-73
2022/11/03 18:00:37;;;;;;;;;;;;;;;16.49;64.27;96108.66;4213043;28;5632;-73
2022/11/03 18:02:40;;;;;;;;;;;;;;;16.47;64.33;96100.09;4211008;28;5627;-73
2022/11/03 18:04:43;;;;;;;;;;;;;;;16.44;64.43;96089.91;4214452;28;5653;-73
2022/11/03 18:06:46;;;;;;;;;;;;;;;16.45;64.56;96097.66;4211958;28;5684;-74
2022/11/03 18:08:49;;;;;;;;;;;;;;;16.46;64.46;96090.47;4216177;28;5683;-78
2022/11/03 18:10:55;;;;;;;;;;;;;;;16.49;64.31;96100.63;4213784;28;5793;-78
2022/11/03 18:13:16;;;;;;;;;;;;;;;16.47;64.55;96089.41;4208168;28;5726;-79
2022/11/03 18:15:21;;;;;;;;;;;;;;;16.45;64.61;96083.53;4210437;28;5677;-78
2022/11/03 18:17:24;;;;;;;;;;;;;;;16.42;64.79;96092.84;4211577;28;5700;-77
2022/11/03 18:19:27;;;;;;;;;;;;;;;16.44;64.74;96100.59;4212592;28;5776;-78
2022/11/03 18:21:30;;;;;;;;;;;;;;;16.47;64.78;96103.56;4211002;28;6429;-78
2022/11/03 18:23:34;;;;;;;;;;;;;;;16.50;64.76;96116.41;4213507;28;6314;-78
2022/11/03 18:25:37;;;;;;;;;;;;;;;16.53;64.93;96129.25;4216562;28;5861;-78
2022/11/03 18:27:40;;;;;;;;;;;;;;;16.56;64.86;96125.28;4214352;28;5695;-78
2022/11/03 18:29:44;;;;;;;;;;;;;;;16.57;65.01;96117.03;4216896;28;5624;-78
2022/11/03 18:31:49;;;;;;;;;;;;;;;16.58;64.96;96125.84;4216008;28;5711;-77
2022/11/03 18:33:53;;;;;;;;;;;;;;;16.62;65.02;96131.50;4214324;28;5773;-77
2022/11/03 18:35:56;;;;;;;;;;;;;;;16.61;65.21;96112.00;4199976;28;5632;-78
2022/11/03 18:37:59;;;;;;;;;;;;;;;16.57;64.94;96094.88;4209896;28;5613;-77
2022/11/03 18:40:02;;;;;;;;;;;;;;;16.53;65.10;96094.56;4214922;28;5700;-77
2022/11/03 18:42:10;;;;;;;;;;;;;;;16.50;65.21;96086.25;4214547;28;5733;-78
2022/11/03 18:44:17;;;;;;;;;;;;;;;16.46;65.29;96085.94;4207670;28;5637;-77
2022/11/03 18:46:21;;;;;;;;;;;;;;;16.46;65.29;96079.81;4212644;28;6080;-77
2022/11/03 18:48:24;;;;;;;;;;;;;;;16.46;65.41;96082.47;4209397;28;5637;-78
2022/11/03 18:50:27;;;;;;;;;;;;;;;16.45;65.51;96091.53;4214875;28;5804;-78
2022/11/03 18:52:30;;;;;;;;;;;;;;;16.45;65.71;96088.84;4217380;28;6507;-78
2022/11/03 18:54:34;;;;;;;;;;;;;;;16.43;65.66;96085.63;4215707;28;5858;-77
2022/11/03 18:56:37;;;;;;;;;;;;;;;16.43;65.80;96090.97;4204078;28;5807;-77
2022/11/03 18:58:40;;;;;;;;;;;;;;;16.42;65.46;96076.00;4212704;28;5761;-76
2022/11/03 19:00:43;;;;;;;;;;;;;;;16.40;65.78;96086.91;4207732;28;5736;-76
2022/11/03 19:02:47;;;;;;;;;;;;;;;16.39;66.02;96076.50;4208633;28;5532;-76
2022/11/03 19:04:50;;;;;;;;;;;;;;;16.37;65.95;96071.41;4202761;28;5714;-75
2022/11/03 19:06:53;;;;;;;;;;;;;;;16.36;66.06;96077.00;4210641;28;5802;-76
2022/11/03 19:08:59;;;;;;;;;;;;;;;16.35;66.19;96080.72;4209517;28;5704;-76
2022/11/03 19:11:02;;;;;;;;;;;;;;;16.34;66.14;96061.25;4204074;28;5686;-76
2022/11/03 19:13:06;;;;;;;;;;;;;;;16.39;66.35;96068.50;4217091;28;5633;-77
2022/11/03 19:15:17;;;;;;;;;;;;;;;16.41;66.26;96093.88;4215036;28;6429;-76
2022/11/03 19:17:21;;;;;;;;;;;;;;;16.42;66.19;96134.69;4197627;28;6518;-76
2022/11/03 19:19:28;;;;;;;;;;;;;;;16.44;66.21;96193.97;4208360;28;5898;-66